sensor_id;sensor_type;location;lat;lon;timestamp;P1;P2;P0
56495;PMS5003;42804;55.762;38.084;2023-07-30T00:00:43;12.75;11.25;7.00
56495;PMS5003;42804;55.762;38.084;2023-07-30T00:03:12;11.75;11.75;9.50
56495;PMS5003;42804;55.762;38.084;2023-07-30T00:05:40;11.00;10.25;7.00
56495;PMS5003;42804;55.762;38.084;2023-07-30T00:08:08;10.50;9.75;6.75
56495;PMS5003;42804;55.762;38.084;2023-07-30T00:10:36;11.00;8.75;5.75
56495;PMS5003;42804;55.762;38.084;2023-07-30T00:13:06;11.50;11.50;9.00
56495;PMS5003;42804;55.762;38.084;2023-07-30T00:15:34;11.75;10.50;7.75
56495;PMS5003;42804;55.762;38.084;2023-07-30T00:18:03;13.75;13.25;9.25
56495;PMS5003;42804;55.762;38.084;2023-07-30T00:20:31;12.00;12.00;9.50
56495;PMS5003;42804;55.762;38.084;2023-07-30T00:22:59;10.50;10.50;6.50
56495;PMS5003;42804;55.762;38.084;2023-07-30T00:25:28;12.75;10.50;6.75
56495;PMS5003;42804;55.762;38.084;2023-07-30T00:27:56;15.75;13.50;8.25
56495;PMS5003;42804;55.762;38.084;2023-07-30T00:30:26;8.00;8.00;6.00
56495;PMS5003;42804;55.762;38.084;2023-07-30T00:32:54;12.00;12.00;8.50
56495;PMS5003;42804;55.762;38.084;2023-07-30T00:35:22;13.50;12.25;9.00
56495;PMS5003;42804;55.762;38.084;2023-07-30T00:37:50;14.25;12.50;8.75
56495;PMS5003;42804;55.762;38.084;2023-07-30T00:40:19;15.75;13.75;10.50
56495;PMS5003;42804;55.762;38.084;2023-07-30T00:42:47;13.50;13.00;8.75
56495;PMS5003;42804;55.762;38.084;2023-07-30T00:45:15;1.00;1.00;0.00
56495;PMS5003;42804;55.762;38.084;2023-07-30T00:47:45;14.25;10.75;8.75
56495;PMS5003;42804;55.762;38.084;2023-07-30T00:50:13;15.75;14.50;11.25
56495;PMS5003;42804;55.762;38.084;2023-07-30T00:52:42;13.50;11.75;8.75
56495;PMS5003;42804;55.762;38.084;2023-07-30T00:55:11;13.50;12.00;7.25
56495;PMS5003;42804;55.762;38.084;2023-07-30T00:57:40;13.75;13.00;8.50
56495;PMS5003;42804;55.762;38.084;2023-07-30T01:00:10;13.25;12.50;9.75
56495;PMS5003;42804;55.762;38.084;2023-07-30T01:02:38;15.25;14.00;8.50
56495;PMS5003;42804;55.762;38.084;2023-07-30T01:05:08;10.25;9.00;5.25
56495;PMS5003;42804;55.762;38.084;2023-07-30T01:07:36;14.00;14.00;10.00
56495;PMS5003;42804;55.762;38.084;2023-07-30T01:10:05;15.50;14.00;10.00
56495;PMS5003;42804;55.762;38.084;2023-07-30T01:12:33;13.25;13.00;9.25
56495;PMS5003;42804;55.762;38.084;2023-07-30T01:15:03;13.75;12.75;7.25
56495;PMS5003;42804;55.762;38.084;2023-07-30T01:17:32;11.75;10.50;8.00
56495;PMS5003;42804;55.762;38.084;2023-07-30T01:20:02;14.75;14.50;11.50
56495;PMS5003;42804;55.762;38.084;2023-07-30T01:22:32;17.50;16.50;9.75
56495;PMS5003;42804;55.762;38.084;2023-07-30T01:25:01;17.25;16.00;12.00
56495;PMS5003;42804;55.762;38.084;2023-07-30T01:27:32;16.25;15.75;8.50
56495;PMS5003;42804;55.762;38.084;2023-07-30T01:30:03;16.75;16.00;12.50
56495;PMS5003;42804;55.762;38.084;2023-07-30T01:32:33;20.50;19.75;14.50
56495;PMS5003;42804;55.762;38.084;2023-07-30T01:35:02;16.50;16.00;11.25
56495;PMS5003;42804;55.762;38.084;2023-07-30T01:37:33;15.00;12.00;7.25
56495;PMS5003;42804;55.762;38.084;2023-07-30T01:40:02;19.75;19.50;12.75
56495;PMS5003;42804;55.762;38.084;2023-07-30T01:42:31;13.50;13.50;9.50
56495;PMS5003;42804;55.762;38.084;2023-07-30T01:44:59;17.00;15.75;11.00
56495;PMS5003;42804;55.762;38.084;2023-07-30T01:47:30;16.75;15.50;10.25
56495;PMS5003;42804;55.762;38.084;2023-07-30T01:49:58;19.50;15.00;10.00
56495;PMS5003;42804;55.762;38.084;2023-07-30T01:52:29;16.25;16.25;10.25
56495;PMS5003;42804;55.762;38.084;2023-07-30T01:54:59;16.75;14.00;10.50
56495;PMS5003;42804;55.762;38.084;2023-07-30T01:57:30;19.25;17.25;12.00
56495;PMS5003;42804;55.762;38.084;2023-07-30T01:59:59;17.25;16.00;10.50
56495;PMS5003;42804;55.762;38.084;2023-07-30T02:02:33;15.00;14.50;9.50
56495;PMS5003;42804;55.762;38.084;2023-07-30T02:05:03;14.50;14.50;9.25
56495;PMS5003;42804;55.762;38.084;2023-07-30T02:07:31;15.00;15.00;11.00
56495;PMS5003;42804;55.762;38.084;2023-07-30T02:10:01;18.25;16.00;10.75
56495;PMS5003;42804;55.762;38.084;2023-07-30T02:12:30;9.25;9.25;5.75
56495;PMS5003;42804;55.762;38.084;2023-07-30T02:14:58;15.25;14.00;12.00
56495;PMS5003;42804;55.762;38.084;2023-07-30T02:17:31;15.75;15.00;11.00
56495;PMS5003;42804;55.762;38.084;2023-07-30T02:20:19;18.50;13.00;10.00
56495;PMS5003;42804;55.762;38.084;2023-07-30T02:22:48;14.00;14.00;9.50
56495;PMS5003;42804;55.762;38.084;2023-07-30T02:25:17;17.00;13.00;11.50
56495;PMS5003;42804;55.762;38.084;2023-07-30T02:27:46;12.50;12.25;9.25
56495;PMS5003;42804;55.762;38.084;2023-07-30T02:30:15;18.00;17.00;12.00
56495;PMS5003;42804;55.762;38.084;2023-07-30T02:32:43;13.00;11.25;9.25
56495;PMS5003;42804;55.762;38.084;2023-07-30T02:35:11;17.25;16.25;10.00
56495;PMS5003;42804;55.762;38.084;2023-07-30T02:37:40;16.25;15.75;11.00
56495;PMS5003;42804;55.762;38.084;2023-07-30T02:40:09;15.25;15.25;11.50
56495;PMS5003;42804;55.762;38.084;2023-07-30T02:42:38;14.00;13.50;10.00
56495;PMS5003;42804;55.762;38.084;2023-07-30T02:45:07;16.00;15.50;10.00
56495;PMS5003;42804;55.762;38.084;2023-07-30T02:47:35;16.25;15.00;10.00
56495;PMS5003;42804;55.762;38.084;2023-07-30T02:50:04;16.00;16.00;10.50
56495;PMS5003;42804;55.762;38.084;2023-07-30T02:52:33;16.00;15.00;10.00
56495;PMS5003;42804;55.762;38.084;2023-07-30T02:55:01;15.00;15.00;11.00
56495;PMS5003;42804;55.762;38.084;2023-07-30T02:57:29;15.50;15.00;11.50
56495;PMS5003;42804;55.762;38.084;2023-07-30T02:59:59;20.25;19.00;12.25
56495;PMS5003;42804;55.762;38.084;2023-07-30T03:02:30;20.50;16.75;11.00
56495;PMS5003;42804;55.762;38.084;2023-07-30T03:04:59;16.50;15.25;10.25
56495;PMS5003;42804;55.762;38.084;2023-07-30T03:07:29;18.75;17.00;10.00
56495;PMS5003;42804;55.762;38.084;2023-07-30T03:09:57;15.75;14.00;8.50
56495;PMS5003;42804;55.762;38.084;2023-07-30T03:12:25;9.50;7.75;4.75
56495;PMS5003;42804;55.762;38.084;2023-07-30T03:14:54;18.75;18.00;11.00
56495;PMS5003;42804;55.762;38.084;2023-07-30T03:17:24;19.00;18.50;12.50
56495;PMS5003;42804;55.762;38.084;2023-07-30T03:19:53;22.25;20.00;14.00
56495;PMS5003;42804;55.762;38.084;2023-07-30T03:22:21;15.50;14.75;9.50
56495;PMS5003;42804;55.762;38.084;2023-07-30T03:24:49;20.25;18.25;13.75
56495;PMS5003;42804;55.762;38.084;2023-07-30T03:27:19;14.25;13.00;7.50
56495;PMS5003;42804;55.762;38.084;2023-07-30T03:29:47;20.00;19.00;13.00
56495;PMS5003;42804;55.762;38.084;2023-07-30T03:32:15;15.50;14.50;9.25
56495;PMS5003;42804;55.762;38.084;2023-07-30T03:34:45;18.00;17.00;11.00
56495;PMS5003;42804;55.762;38.084;2023-07-30T03:37:13;19.00;17.50;13.50
56495;PMS5003;42804;55.762;38.084;2023-07-30T03:39:42;12.50;12.25;11.75
56495;PMS5003;42804;55.762;38.084;2023-07-30T03:42:10;15.25;15.25;10.75
56495;PMS5003;42804;55.762;38.084;2023-07-30T03:44:38;17.25;16.50;11.75
56495;PMS5003;42804;55.762;38.084;2023-07-30T03:47:07;15.50;15.50;10.25
56495;PMS5003;42804;55.762;38.084;2023-07-30T03:49:35;17.00;15.00;11.00
56495;PMS5003;42804;55.762;38.084;2023-07-30T03:52:05;17.75;16.00;12.00
56495;PMS5003;42804;55.762;38.084;2023-07-30T03:54:35;16.00;15.00;10.75
56495;PMS5003;42804;55.762;38.084;2023-07-30T03:57:03;15.00;13.25;10.00
56495;PMS5003;42804;55.762;38.084;2023-07-30T03:59:32;17.50;16.25;10.25
56495;PMS5003;42804;55.762;38.084;2023-07-30T04:02:00;20.75;20.00;14.50
56495;PMS5003;42804;55.762;38.084;2023-07-30T04:04:32;16.75;15.75;11.25
56495;PMS5003;42804;55.762;38.084;2023-07-30T04:07:01;16.50;15.50;9.50
56495;PMS5003;42804;55.762;38.084;2023-07-30T04:09:30;16.00;15.25;10.00
56495;PMS5003;42804;55.762;38.084;2023-07-30T04:11:59;15.25;14.25;10.75
56495;PMS5003;42804;55.762;38.084;2023-07-30T04:14:27;15.75;15.25;10.75
56495;PMS5003;42804;55.762;38.084;2023-07-30T04:16:55;17.00;16.50;11.00
56495;PMS5003;42804;55.762;38.084;2023-07-30T04:19:25;13.50;13.00;10.75
56495;PMS5003;42804;55.762;38.084;2023-07-30T04:21:53;16.75;15.25;10.00
56495;PMS5003;42804;55.762;38.084;2023-07-30T04:24:21;15.00;15.00;9.50
56495;PMS5003;42804;55.762;38.084;2023-07-30T04:26:51;19.00;17.00;13.75
56495;PMS5003;42804;55.762;38.084;2023-07-30T04:29:19;15.75;15.00;10.00
56495;PMS5003;42804;55.762;38.084;2023-07-30T04:31:48;15.75;15.00;9.75
56495;PMS5003;42804;55.762;38.084;2023-07-30T04:34:17;14.25;14.25;10.25
56495;PMS5003;42804;55.762;38.084;2023-07-30T04:36:45;16.25;15.50;10.00
56495;PMS5003;42804;55.762;38.084;2023-07-30T04:39:14;14.00;12.00;9.00
56495;PMS5003;42804;55.762;38.084;2023-07-30T04:41:42;16.75;15.00;10.00
56495;PMS5003;42804;55.762;38.084;2023-07-30T04:44:12;18.00;15.50;11.00
56495;PMS5003;42804;55.762;38.084;2023-07-30T04:46:40;11.50;11.25;9.00
56495;PMS5003;42804;55.762;38.084;2023-07-30T04:49:09;15.00;14.00;10.25
56495;PMS5003;42804;55.762;38.084;2023-07-30T04:51:39;15.25;14.50;8.50
56495;PMS5003;42804;55.762;38.084;2023-07-30T04:54:07;14.50;13.50;9.50
56495;PMS5003;42804;55.762;38.084;2023-07-30T04:56:36;16.00;16.00;11.00
56495;PMS5003;42804;55.762;38.084;2023-07-30T04:59:04;15.25;13.25;8.75
56495;PMS5003;42804;55.762;38.084;2023-07-30T05:01:34;15.00;13.75;9.00
56495;PMS5003;42804;55.762;38.084;2023-07-30T05:04:04;19.00;17.50;13.50
56495;PMS5003;42804;55.762;38.084;2023-07-30T05:06:32;10.00;9.00;7.75
56495;PMS5003;42804;55.762;38.084;2023-07-30T05:09:00;15.00;15.00;11.00
56495;PMS5003;42804;55.762;38.084;2023-07-30T05:11:29;14.50;14.00;10.00
56495;PMS5003;42804;55.762;38.084;2023-07-30T05:13:57;11.00;11.00;8.00
56495;PMS5003;42804;55.762;38.084;2023-07-30T05:16:25;13.25;13.00;9.00
56495;PMS5003;42804;55.762;38.084;2023-07-30T05:18:55;13.50;12.75;9.00
56495;PMS5003;42804;55.762;38.084;2023-07-30T05:21:23;15.75;15.50;11.25
56495;PMS5003;42804;55.762;38.084;2023-07-30T05:23:51;9.20;9.20;6.60
56495;PMS5003;42804;55.762;38.084;2023-07-30T05:26:20;15.50;14.50;10.50
56495;PMS5003;42804;55.762;38.084;2023-07-30T05:28:48;11.50;11.50;9.50
56495;PMS5003;42804;55.762;38.084;2023-07-30T05:31:16;10.75;10.75;6.50
56495;PMS5003;42804;55.762;38.084;2023-07-30T05:33:45;14.00;13.75;10.50
56495;PMS5003;42804;55.762;38.084;2023-07-30T05:36:14;9.25;9.25;5.25
56495;PMS5003;42804;55.762;38.084;2023-07-30T05:38:43;9.00;8.25;6.00
56495;PMS5003;42804;55.762;38.084;2023-07-30T05:41:12;9.00;8.25;4.00
56495;PMS5003;42804;55.762;38.084;2023-07-30T05:43:40;11.00;10.50;8.25
56495;PMS5003;42804;55.762;38.084;2023-07-30T05:46:08;8.00;8.00;5.50
56495;PMS5003;42804;55.762;38.084;2023-07-30T05:48:37;9.20;9.20;6.00
56495;PMS5003;42804;55.762;38.084;2023-07-30T05:51:05;10.40;10.20;8.40
56495;PMS5003;42804;55.762;38.084;2023-07-30T05:53:35;12.25;11.00;9.75
56495;PMS5003;42804;55.762;38.084;2023-07-30T05:56:03;10.75;10.00;6.50
56495;PMS5003;42804;55.762;38.084;2023-07-30T05:58:31;5.25;4.50;3.50
56495;PMS5003;42804;55.762;38.084;2023-07-30T06:01:00;10.25;8.50;5.50
56495;PMS5003;42804;55.762;38.084;2023-07-30T06:03:28;9.75;9.25;8.00
56495;PMS5003;42804;55.762;38.084;2023-07-30T06:05:56;4.00;4.00;3.00
56495;PMS5003;42804;55.762;38.084;2023-07-30T06:08:25;4.40;4.40;3.80
56495;PMS5003;42804;55.762;38.084;2023-07-30T06:11:02;10.25;9.75;7.00
56495;PMS5003;42804;55.762;38.084;2023-07-30T06:13:31;5.75;5.75;4.25
56495;PMS5003;42804;55.762;38.084;2023-07-30T06:15:59;9.25;9.25;7.00
56495;PMS5003;42804;55.762;38.084;2023-07-30T06:18:27;5.00;5.00;3.40
56495;PMS5003;42804;55.762;38.084;2023-07-30T06:20:56;8.00;8.00;5.00
56495;PMS5003;42804;55.762;38.084;2023-07-30T06:23:24;8.75;8.75;5.75
56495;PMS5003;42804;55.762;38.084;2023-07-30T06:25:52;8.00;7.25;5.50
56495;PMS5003;42804;55.762;38.084;2023-07-30T06:28:22;5.00;5.00;4.00
56495;PMS5003;42804;55.762;38.084;2023-07-30T06:30:51;6.50;6.25;4.25
56495;PMS5003;42804;55.762;38.084;2023-07-30T06:33:19;10.40;8.60;6.00
56495;PMS5003;42804;55.762;38.084;2023-07-30T06:35:48;7.80;7.20;5.80
56495;PMS5003;42804;55.762;38.084;2023-07-30T06:38:16;9.00;9.00;5.20
56495;PMS5003;42804;55.762;38.084;2023-07-30T06:40:45;9.00;9.00;6.00
56495;PMS5003;42804;55.762;38.084;2023-07-30T06:43:13;7.20;7.20;6.00
56495;PMS5003;42804;55.762;38.084;2023-07-30T06:45:43;6.80;6.60;5.20
56495;PMS5003;42804;55.762;38.084;2023-07-30T06:48:11;8.25;8.25;5.75
56495;PMS5003;42804;55.762;38.084;2023-07-30T06:50:39;7.00;6.25;5.75
56495;PMS5003;42804;55.762;38.084;2023-07-30T06:53:08;8.50;8.25;6.00
56495;PMS5003;42804;55.762;38.084;2023-07-30T06:55:36;3.40;3.40;2.40
56495;PMS5003;42804;55.762;38.084;2023-07-30T06:58:04;5.25;5.00;3.00
56495;PMS5003;42804;55.762;38.084;2023-07-30T07:00:33;5.00;3.75;3.75
56495;PMS5003;42804;55.762;38.084;2023-07-30T07:03:03;8.50;7.25;6.00
56495;PMS5003;42804;55.762;38.084;2023-07-30T07:05:31;7.00;7.00;5.50
56495;PMS5003;42804;55.762;38.084;2023-07-30T07:08:00;6.75;6.75;5.25
56495;PMS5003;42804;55.762;38.084;2023-07-30T07:10:28;6.25;6.25;4.50
56495;PMS5003;42804;55.762;38.084;2023-07-30T07:12:57;6.00;6.00;4.60
56495;PMS5003;42804;55.762;38.084;2023-07-30T07:15:25;5.25;5.00;4.00
56495;PMS5003;42804;55.762;38.084;2023-07-30T07:17:54;5.80;5.40;4.00
56495;PMS5003;42804;55.762;38.084;2023-07-30T07:20:23;6.00;4.75;3.25
56495;PMS5003;42804;55.762;38.084;2023-07-30T07:22:52;7.00;7.00;5.00
56495;PMS5003;42804;55.762;38.084;2023-07-30T07:25:20;6.50;6.50;5.00
56495;PMS5003;42804;55.762;38.084;2023-07-30T07:27:48;5.40;5.40;5.00
56495;PMS5003;42804;55.762;38.084;2023-07-30T07:30:17;4.60;4.00;3.00
56495;PMS5003;42804;55.762;38.084;2023-07-30T07:32:45;5.00;4.20;3.20
56495;PMS5003;42804;55.762;38.084;2023-07-30T07:35:18;7.40;7.40;6.00
56495;PMS5003;42804;55.762;38.084;2023-07-30T07:37:48;7.40;7.40;6.00
56495;PMS5003;42804;55.762;38.084;2023-07-30T07:40:17;4.00;4.00;3.00
56495;PMS5003;42804;55.762;38.084;2023-07-30T07:42:46;5.80;5.40;4.00
56495;PMS5003;42804;55.762;38.084;2023-07-30T07:45:14;6.40;6.40;5.00
56495;PMS5003;42804;55.762;38.084;2023-07-30T07:47:44;6.60;6.00;5.00
56495;PMS5003;42804;55.762;38.084;2023-07-30T07:50:12;4.60;4.60;4.60
56495;PMS5003;42804;55.762;38.084;2023-07-30T07:52:42;7.00;6.80;5.00
56495;PMS5003;42804;55.762;38.084;2023-07-30T07:55:12;7.20;6.40;5.00
56495;PMS5003;42804;55.762;38.084;2023-07-30T07:57:40;7.20;7.20;5.20
56495;PMS5003;42804;55.762;38.084;2023-07-30T08:00:09;7.60;6.00;3.40
56495;PMS5003;42804;55.762;38.084;2023-07-30T08:02:38;5.00;4.75;2.25
56495;PMS5003;42804;55.762;38.084;2023-07-30T08:05:07;6.75;5.00;4.00
56495;PMS5003;42804;55.762;38.084;2023-07-30T08:07:35;7.25;7.00;4.00
56495;PMS5003;42804;55.762;38.084;2023-07-30T08:10:04;4.60;4.60;3.60
56495;PMS5003;42804;55.762;38.084;2023-07-30T08:12:34;8.60;8.00;5.00
56495;PMS5003;42804;55.762;38.084;2023-07-30T08:15:02;5.60;5.60;4.00
56495;PMS5003;42804;55.762;38.084;2023-07-30T08:17:31;4.60;4.60;3.80
56495;PMS5003;42804;55.762;38.084;2023-07-30T08:19:59;5.00;5.00;4.00
56495;PMS5003;42804;55.762;38.084;2023-07-30T08:22:29;5.50;5.00;4.25
56495;PMS5003;42804;55.762;38.084;2023-07-30T08:24:58;3.60;3.60;2.00
56495;PMS5003;42804;55.762;38.084;2023-07-30T08:27:26;4.20;4.20;3.20
56495;PMS5003;42804;55.762;38.084;2023-07-30T08:29:57;5.40;5.00;3.20
56495;PMS5003;42804;55.762;38.084;2023-07-30T08:32:25;5.00;5.00;4.00
56495;PMS5003;42804;55.762;38.084;2023-07-30T08:34:54;7.00;7.00;6.00
56495;PMS5003;42804;55.762;38.084;2023-07-30T08:37:22;8.00;7.20;5.80
56495;PMS5003;42804;55.762;38.084;2023-07-30T08:39:51;4.60;3.60;2.00
56495;PMS5003;42804;55.762;38.084;2023-07-30T08:42:19;6.20;6.20;4.40
56495;PMS5003;42804;55.762;38.084;2023-07-30T08:44:48;5.60;5.20;3.40
56495;PMS5003;42804;55.762;38.084;2023-07-30T08:47:18;5.60;4.80;3.40
56495;PMS5003;42804;55.762;38.084;2023-07-30T08:49:46;5.00;5.00;3.20
56495;PMS5003;42804;55.762;38.084;2023-07-30T08:52:15;4.00;4.00;3.80
56495;PMS5003;42804;55.762;38.084;2023-07-30T08:54:44;3.80;3.80;3.00
56495;PMS5003;42804;55.762;38.084;2023-07-30T08:57:18;7.20;6.40;5.00
56495;PMS5003;42804;55.762;38.084;2023-07-30T08:59:49;4.00;4.00;3.00
56495;PMS5003;42804;55.762;38.084;2023-07-30T09:02:33;5.00;5.00;4.00
56495;PMS5003;42804;55.762;38.084;2023-07-30T09:05:02;3.00;3.00;1.80
56495;PMS5003;42804;55.762;38.084;2023-07-30T09:07:31;6.00;6.00;4.20
56495;PMS5003;42804;55.762;38.084;2023-07-30T09:10:00;4.60;4.60;4.00
56495;PMS5003;42804;55.762;38.084;2023-07-30T09:12:29;4.25;4.00;3.50
56495;PMS5003;42804;55.762;38.084;2023-07-30T09:14:59;6.00;5.20;4.60
56495;PMS5003;42804;55.762;38.084;2023-07-30T09:17:31;5.60;5.40;4.40
56495;PMS5003;42804;55.762;38.084;2023-07-30T09:19:59;4.80;4.40;4.00
56495;PMS5003;42804;55.762;38.084;2023-07-30T09:22:31;4.40;4.40;3.00
56495;PMS5003;42804;55.762;38.084;2023-07-30T09:25:01;5.20;5.20;4.20
56495;PMS5003;42804;55.762;38.084;2023-07-30T09:27:30;8.00;6.80;5.00
56495;PMS5003;42804;55.762;38.084;2023-07-30T09:30:00;3.60;3.60;3.00
56495;PMS5003;42804;55.762;38.084;2023-07-30T09:32:32;7.60;7.00;5.40
56495;PMS5003;42804;55.762;38.084;2023-07-30T09:35:05;5.00;5.00;3.00
56495;PMS5003;42804;55.762;38.084;2023-07-30T09:37:36;6.00;6.00;4.80
56495;PMS5003;42804;55.762;38.084;2023-07-30T09:40:05;6.40;6.40;4.80
56495;PMS5003;42804;55.762;38.084;2023-07-30T09:42:34;7.00;6.50;5.00
56495;PMS5003;42804;55.762;38.084;2023-07-30T09:45:07;7.20;6.60;5.00
56495;PMS5003;42804;55.762;38.084;2023-07-30T09:47:38;5.20;5.20;4.00
56495;PMS5003;42804;55.762;38.084;2023-07-30T09:50:06;5.60;5.00;2.80
56495;PMS5003;42804;55.762;38.084;2023-07-30T09:52:35;6.20;5.40;4.80
56495;PMS5003;42804;55.762;38.084;2023-07-30T09:55:04;6.40;6.00;4.60
56495;PMS5003;42804;55.762;38.084;2023-07-30T09:57:34;3.00;2.00;1.00
56495;PMS5003;42804;55.762;38.084;2023-07-30T10:00:02;2.00;2.00;1.00
56495;PMS5003;42804;55.762;38.084;2023-07-30T10:02:34;5.40;5.00;4.00
56495;PMS5003;42804;55.762;38.084;2023-07-30T10:05:08;6.00;6.00;5.00
56495;PMS5003;42804;55.762;38.084;2023-07-30T10:07:38;5.50;5.00;4.00
56495;PMS5003;42804;55.762;38.084;2023-07-30T10:10:09;3.00;3.00;2.00
56495;PMS5003;42804;55.762;38.084;2023-07-30T10:12:38;3.00;3.00;1.60
56495;PMS5003;42804;55.762;38.084;2023-07-30T10:15:08;6.20;6.00;4.80
56495;PMS5003;42804;55.762;38.084;2023-07-30T10:17:36;5.75;5.75;4.00
56495;PMS5003;42804;55.762;38.084;2023-07-30T10:20:22;3.80;3.80;2.80
56495;PMS5003;42804;55.762;38.084;2023-07-30T10:22:51;6.00;6.00;4.00
56495;PMS5003;42804;55.762;38.084;2023-07-30T10:25:20;3.00;3.00;2.00
56495;PMS5003;42804;55.762;38.084;2023-07-30T10:27:49;5.00;5.00;4.00
56495;PMS5003;42804;55.762;38.084;2023-07-30T10:30:19;4.80;4.80;4.00
56495;PMS5003;42804;55.762;38.084;2023-07-30T10:33:00;5.00;5.00;3.80
56495;PMS5003;42804;55.762;38.084;2023-07-30T10:35:37;5.00;5.00;3.50
56495;PMS5003;42804;55.762;38.084;2023-07-30T10:38:15;3.40;3.40;2.40
56495;PMS5003;42804;55.762;38.084;2023-07-30T10:41:00;5.40;5.40;3.60
56495;PMS5003;42804;55.762;38.084;2023-07-30T10:43:29;4.60;4.60;4.00
56495;PMS5003;42804;55.762;38.084;2023-07-30T10:45:57;3.60;3.60;3.00
56495;PMS5003;42804;55.762;38.084;2023-07-30T10:48:31;5.40;5.00;4.00
56495;PMS5003;42804;55.762;38.084;2023-07-30T10:51:02;6.20;6.00;5.00
56495;PMS5003;42804;55.762;38.084;2023-07-30T10:53:31;5.20;4.20;3.20
56495;PMS5003;42804;55.762;38.084;2023-07-30T10:56:00;4.50;4.00;3.50
56495;PMS5003;42804;55.762;38.084;2023-07-30T10:58:29;4.00;4.00;2.00
56495;PMS5003;42804;55.762;38.084;2023-07-30T11:00:58;3.25;3.00;2.00
56495;PMS5003;42804;55.762;38.084;2023-07-30T11:03:26;4.25;3.50;2.00
56495;PMS5003;42804;55.762;38.084;2023-07-30T11:05:55;4.60;4.60;3.20
56495;PMS5003;42804;55.762;38.084;2023-07-30T11:08:33;6.00;5.50;3.75
56495;PMS5003;42804;55.762;38.084;2023-07-30T11:11:01;4.75;4.75;3.00
56495;PMS5003;42804;55.762;38.084;2023-07-30T11:13:30;5.00;5.00;3.60
56495;PMS5003;42804;55.762;38.084;2023-07-30T11:16:03;6.60;6.60;4.60
56495;PMS5003;42804;55.762;38.084;2023-07-30T11:18:32;4.00;4.00;3.00
56495;PMS5003;42804;55.762;38.084;2023-07-30T11:21:04;5.40;5.20;3.60
56495;PMS5003;42804;55.762;38.084;2023-07-30T11:23:35;4.25;4.00;3.00
56495;PMS5003;42804;55.762;38.084;2023-07-30T11:26:05;4.00;4.00;3.00
56495;PMS5003;42804;55.762;38.084;2023-07-30T11:28:33;3.00;3.00;1.00
56495;PMS5003;42804;55.762;38.084;2023-07-30T11:31:05;5.50;5.50;4.00
56495;PMS5003;42804;55.762;38.084;2023-07-30T11:33:34;5.00;5.00;3.00
56495;PMS5003;42804;55.762;38.084;2023-07-30T11:36:03;6.25;6.25;4.25
56495;PMS5003;42804;55.762;38.084;2023-07-30T11:38:31;6.40;6.00;4.20
56495;PMS5003;42804;55.762;38.084;2023-07-30T11:41:01;4.80;4.80;3.00
56495;PMS5003;42804;55.762;38.084;2023-07-30T11:43:30;4.00;4.00;2.50
56495;PMS5003;42804;55.762;38.084;2023-07-30T11:46:11;5.60;5.00;4.00
56495;PMS5003;42804;55.762;38.084;2023-07-30T11:48:42;6.80;6.00;4.00
56495;PMS5003;42804;55.762;38.084;2023-07-30T11:51:18;4.00;4.00;3.25
56495;PMS5003;42804;55.762;38.084;2023-07-30T11:53:48;6.00;6.00;5.00
56495;PMS5003;42804;55.762;38.084;2023-07-30T11:56:23;5.00;5.00;4.40
56495;PMS5003;42804;55.762;38.084;2023-07-30T11:58:54;4.00;4.00;3.00
56495;PMS5003;42804;55.762;38.084;2023-07-30T12:01:23;5.00;5.00;4.80
56495;PMS5003;42804;55.762;38.084;2023-07-30T12:03:53;6.60;5.80;3.80
56495;PMS5003;42804;55.762;38.084;2023-07-30T12:06:22;3.60;3.60;2.80
56495;PMS5003;42804;55.762;38.084;2023-07-30T12:08:50;5.00;5.00;4.00
56495;PMS5003;42804;55.762;38.084;2023-07-30T12:11:19;5.00;5.00;3.60
56495;PMS5003;42804;55.762;38.084;2023-07-30T12:13:49;4.00;4.00;3.00
56495;PMS5003;42804;55.762;38.084;2023-07-30T12:16:18;4.00;4.00;2.80
56495;PMS5003;42804;55.762;38.084;2023-07-30T12:18:48;3.60;3.60;3.60
56495;PMS5003;42804;55.762;38.084;2023-07-30T12:21:16;4.40;4.00;3.80
56495;PMS5003;42804;55.762;38.084;2023-07-30T12:23:44;1.00;1.00;1.00
56495;PMS5003;42804;55.762;38.084;2023-07-30T12:26:14;4.60;4.60;3.40
56495;PMS5003;42804;55.762;38.084;2023-07-30T12:28:43;4.80;4.00;3.00
56495;PMS5003;42804;55.762;38.084;2023-07-30T12:31:12;3.40;3.40;2.00
56495;PMS5003;42804;55.762;38.084;2023-07-30T12:33:41;4.00;4.00;2.20
56495;PMS5003;42804;55.762;38.084;2023-07-30T12:36:09;2.00;2.00;1.40
56495;PMS5003;42804;55.762;38.084;2023-07-30T12:38:38;3.80;3.80;2.00
56495;PMS5003;42804;55.762;38.084;2023-07-30T12:41:06;2.80;2.00;1.40
56495;PMS5003;42804;55.762;38.084;2023-07-30T12:43:35;1.60;1.60;1.00
56495;PMS5003;42804;55.762;38.084;2023-07-30T12:46:03;3.00;2.80;2.00
56495;PMS5003;42804;55.762;38.084;2023-07-30T12:48:33;2.00;2.00;2.00
56495;PMS5003;42804;55.762;38.084;2023-07-30T12:51:01;2.60;2.60;2.00
56495;PMS5003;42804;55.762;38.084;2023-07-30T12:53:30;3.75;3.75;3.00
56495;PMS5003;42804;55.762;38.084;2023-07-30T12:55:58;3.60;3.60;3.00
56495;PMS5003;42804;55.762;38.084;2023-07-30T12:58:27;2.00;1.40;0.80
56495;PMS5003;42804;55.762;38.084;2023-07-30T13:00:55;2.00;2.00;1.00
56495;PMS5003;42804;55.762;38.084;2023-07-30T13:03:23;4.75;4.50;2.75
56495;PMS5003;42804;55.762;38.084;2023-07-30T13:05:53;3.25;3.25;3.00
56495;PMS5003;42804;55.762;38.084;2023-07-30T13:08:22;3.40;3.40;2.60
56495;PMS5003;42804;55.762;38.084;2023-07-30T13:10:50;4.00;4.00;3.00
56495;PMS5003;42804;55.762;38.084;2023-07-30T13:13:18;4.00;4.00;3.00
56495;PMS5003;42804;55.762;38.084;2023-07-30T13:15:46;4.60;4.00;2.00
56495;PMS5003;42804;55.762;38.084;2023-07-30T13:18:15;4.00;4.00;2.20
56495;PMS5003;42804;55.762;38.084;2023-07-30T13:20:43;2.40;2.00;1.00
56495;PMS5003;42804;55.762;38.084;2023-07-30T13:23:13;3.00;3.00;2.60
56495;PMS5003;42804;55.762;38.084;2023-07-30T13:25:42;3.00;3.00;2.60
56495;PMS5003;42804;55.762;38.084;2023-07-30T13:28:11;4.75;4.50;3.00
56495;PMS5003;42804;55.762;38.084;2023-07-30T13:30:39;4.80;4.40;3.00
56495;PMS5003;42804;55.762;38.084;2023-07-30T13:33:07;3.80;3.40;3.00
56495;PMS5003;42804;55.762;38.084;2023-07-30T13:35:36;2.00;2.00;2.00
56495;PMS5003;42804;55.762;38.084;2023-07-30T13:38:04;3.00;3.00;1.00
56495;PMS5003;42804;55.762;38.084;2023-07-30T13:40:33;4.00;4.00;3.00
56495;PMS5003;42804;55.762;38.084;2023-07-30T13:43:02;3.00;3.00;2.00
56495;PMS5003;42804;55.762;38.084;2023-07-30T13:45:30;2.75;2.00;1.50
56495;PMS5003;42804;55.762;38.084;2023-07-30T13:47:59;2.00;1.75;1.50
56495;PMS5003;42804;55.762;38.084;2023-07-30T13:50:27;2.00;2.00;2.00
56495;PMS5003;42804;55.762;38.084;2023-07-30T13:52:55;2.80;2.80;2.00
56495;PMS5003;42804;55.762;38.084;2023-07-30T13:55:24;1.00;1.00;0.00
56495;PMS5003;42804;55.762;38.084;2023-07-30T13:57:53;0.00;0.00;0.00
56495;PMS5003;42804;55.762;38.084;2023-07-30T14:00:22;2.00;2.00;1.80
56495;PMS5003;42804;55.762;38.084;2023-07-30T14:02:50;1.80;1.80;1.80
56495;PMS5003;42804;55.762;38.084;2023-07-30T14:05:19;3.00;3.00;2.20
56495;PMS5003;42804;55.762;38.084;2023-07-30T14:07:48;3.60;3.60;3.00
56495;PMS5003;42804;55.762;38.084;2023-07-30T14:10:18;3.00;3.00;2.00